createdAt,value
2023-03-04T00:01:15.948Z,1013.63
2023-03-04T00:04:15.950Z,1013.67
2023-03-04T00:07:15.946Z,1013.68
2023-03-04T00:10:15.938Z,1013.67
2023-03-04T00:13:15.941Z,1013.68
2023-03-04T00:16:15.975Z,1013.63
2023-03-04T00:19:15.939Z,1013.65
2023-03-04T00:22:15.934Z,1013.61
2023-03-04T00:25:15.940Z,1013.66
2023-03-04T00:28:15.946Z,1013.68
2023-03-04T00:31:15.938Z,1013.7
2023-03-04T00:34:15.935Z,1013.68
2023-03-04T00:37:15.934Z,1013.69
2023-03-04T00:40:15.933Z,1013.66
2023-03-04T00:43:15.939Z,1013.65
2023-03-04T00:46:15.960Z,1013.68
2023-03-04T00:49:15.936Z,1013.7
2023-03-04T00:52:15.953Z,1013.63
2023-03-04T00:55:15.920Z,1013.63
2023-03-04T00:58:15.935Z,1013.62
2023-03-04T01:01:15.969Z,1013.63
2023-03-04T01:04:15.919Z,1013.59
2023-03-04T01:07:15.914Z,1013.57
2023-03-04T01:10:15.919Z,1013.56
2023-03-04T01:13:15.916Z,1013.55
2023-03-04T01:16:15.972Z,1013.56
2023-03-04T01:19:15.921Z,1013.55
2023-03-04T01:22:15.911Z,1013.53
2023-03-04T01:25:15.922Z,1013.54
2023-03-04T01:28:15.910Z,1013.45
2023-03-04T01:31:15.932Z,1013.43
2023-03-04T01:34:15.912Z,1013.38
2023-03-04T01:37:15.910Z,1013.39
2023-03-04T01:40:15.907Z,1013.35
2023-03-04T01:43:15.909Z,1013.27
2023-03-04T01:46:15.925Z,1013.21
2023-03-04T01:49:15.958Z,1013.07
2023-03-04T01:52:15.902Z,1013.06
2023-03-04T01:55:15.905Z,1012.98
2023-03-04T01:58:15.897Z,1012.96
2023-03-04T02:01:15.947Z,1012.96
2023-03-04T02:04:15.929Z,1013
2023-03-04T02:07:15.897Z,1012.96
2023-03-04T02:10:15.914Z,1012.97
2023-03-04T02:13:15.912Z,1012.94
2023-03-04T02:16:15.913Z,1012.9
2023-03-04T02:19:15.907Z,1012.87
2023-03-04T02:22:15.895Z,1012.92
2023-03-04T02:25:15.908Z,1012.87
2023-03-04T02:28:15.893Z,1012.89
2023-03-04T02:31:15.895Z,1012.86
2023-03-04T02:34:15.893Z,1012.87
2023-03-04T02:37:15.915Z,1012.83
2023-03-04T02:40:15.898Z,1012.82
2023-03-04T02:43:15.890Z,1012.8
2023-03-04T02:46:15.905Z,1012.78
2023-03-04T02:49:15.895Z,1012.77
2023-03-04T02:52:15.883Z,1012.74
2023-03-04T02:55:15.891Z,1012.73
2023-03-04T02:58:15.910Z,1012.74
2023-03-04T03:01:15.888Z,1012.71
2023-03-04T03:04:15.888Z,1012.65
2023-03-04T03:07:15.882Z,1012.67
2023-03-04T03:10:15.884Z,1012.63
2023-03-04T03:13:15.884Z,1012.68
2023-03-04T03:16:15.916Z,1012.66
2023-03-04T03:19:15.887Z,1012.65
2023-03-04T03:22:15.883Z,1012.59
2023-03-04T03:25:15.877Z,1012.65
2023-03-04T03:28:15.876Z,1012.65
2023-03-04T03:31:15.898Z,1012.67
2023-03-04T03:34:15.891Z,1012.67
2023-03-04T03:37:16.138Z,1012.63
2023-03-04T03:40:15.886Z,1012.61
2023-03-04T03:43:15.878Z,1012.67
2023-03-04T03:46:15.864Z,1012.63
2023-03-04T03:49:15.866Z,1012.63
2023-03-04T03:52:15.865Z,1012.63
2023-03-04T03:55:15.870Z,1012.58
2023-03-04T03:58:15.874Z,1012.58
2023-03-04T04:01:15.860Z,1012.62
2023-03-04T04:04:15.892Z,1012.6
2023-03-04T04:07:15.870Z,1012.57
2023-03-04T04:10:15.869Z,1012.55
2023-03-04T04:13:15.860Z,1012.52
2023-03-04T04:16:15.898Z,1012.52
2023-03-04T04:19:15.876Z,1012.47
2023-03-04T04:22:15.854Z,1012.49
2023-03-04T04:25:15.858Z,1012.54
2023-03-04T04:28:15.869Z,1012.53
2023-03-04T04:31:15.874Z,1012.52
2023-03-04T04:34:15.859Z,1012.52
2023-03-04T04:37:15.851Z,1012.51
2023-03-04T04:40:15.849Z,1012.5
2023-03-04T04:43:15.849Z,1012.51
2023-03-04T04:46:15.966Z,1012.46
2023-03-04T04:49:15.842Z,1012.5
2023-03-04T04:52:15.843Z,1012.45
2023-03-04T04:55:15.848Z,1012.4
2023-03-04T04:58:15.838Z,1012.43
2023-03-04T05:01:15.890Z,1012.4
2023-03-04T05:04:15.890Z,1012.37
2023-03-04T05:07:15.842Z,1012.35
2023-03-04T05:10:15.841Z,1012.35
2023-03-04T05:13:15.842Z,1012.35
2023-03-04T05:16:15.901Z,1012.36
2023-03-04T05:19:15.848Z,1012.34
2023-03-04T05:22:15.843Z,1012.4
2023-03-04T05:25:15.845Z,1012.37
2023-03-04T05:28:15.846Z,1012.37
2023-03-04T05:31:15.922Z,1012.42
2023-03-04T05:34:15.841Z,1012.41
2023-03-04T05:37:15.848Z,1012.38
2023-03-04T05:40:15.842Z,1012.42
2023-03-04T05:43:15.841Z,1012.39
2023-03-04T05:46:15.888Z,1012.39
2023-03-04T05:49:15.836Z,1012.39
2023-03-04T05:52:15.844Z,1012.38
2023-03-04T05:55:15.829Z,1012.39
2023-03-04T05:58:15.854Z,1012.39
2023-03-04T06:01:15.858Z,1012.43
2023-03-04T06:04:15.899Z,1012.43
2023-03-04T06:07:15.837Z,1012.46
2023-03-04T06:10:15.842Z,1012.44
2023-03-04T06:13:15.835Z,1012.45
2023-03-04T06:16:15.927Z,1012.45
2023-03-04T06:19:15.830Z,1012.52
2023-03-04T06:22:15.834Z,1012.54
2023-03-04T06:25:15.842Z,1012.6
2023-03-04T06:28:15.923Z,1012.63
2023-03-04T06:31:16.150Z,1012.64
2023-03-04T06:34:15.823Z,1012.7
2023-03-04T06:37:15.829Z,1012.74
2023-03-04T06:40:15.832Z,1012.83
2023-03-04T06:43:15.829Z,1012.85
2023-03-04T06:46:15.852Z,1012.87
2023-03-04T06:49:15.836Z,1012.92
2023-03-04T06:52:15.825Z,1012.91
2023-03-04T06:55:15.828Z,1012.89
2023-03-04T06:58:15.821Z,1012.9
2023-03-04T07:01:15.840Z,1012.91
2023-03-04T07:04:15.891Z,1012.91
2023-03-04T07:07:15.820Z,1012.9
2023-03-04T07:10:15.827Z,1012.91
2023-03-04T07:13:15.823Z,1012.93
2023-03-04T07:16:15.849Z,1012.96
2023-03-04T07:19:15.819Z,1012.96
2023-03-04T07:22:15.820Z,1013.05
2023-03-04T07:25:15.824Z,1013.05
2023-03-04T07:28:15.824Z,1013.04
2023-03-04T07:31:15.850Z,1013.06
2023-03-04T07:34:15.844Z,1013.11
2023-03-04T07:37:15.830Z,1013.13
2023-03-04T07:40:15.826Z,1013.17
2023-03-04T07:43:15.814Z,1013.18
2023-03-04T07:46:15.892Z,1013.17
2023-03-04T07:49:15.814Z,1013.17
2023-03-04T07:52:15.822Z,1013.18
2023-03-04T07:55:15.826Z,1013.22
2023-03-04T07:58:15.820Z,1013.2
2023-03-04T08:01:15.816Z,1013.22
2023-03-04T08:04:15.900Z,1013.2
2023-03-04T08:07:15.813Z,1013.21
2023-03-04T08:10:15.820Z,1013.23
2023-03-04T08:13:15.807Z,1013.21
2023-03-04T08:16:15.870Z,1013.21
2023-03-04T08:19:15.808Z,1013.24
2023-03-04T08:22:15.804Z,1013.28
2023-03-04T08:25:15.808Z,1013.29
2023-03-04T08:28:15.804Z,1013.26
2023-03-04T08:31:15.897Z,1013.29
2023-03-04T08:34:15.806Z,1013.33
2023-03-04T08:37:15.795Z,1013.37
2023-03-04T08:40:15.796Z,1013.37
2023-03-04T08:43:15.788Z,1013.42
2023-03-04T08:46:15.844Z,1013.44
2023-03-04T08:49:15.842Z,1013.45
2023-03-04T08:52:15.805Z,1013.43
2023-03-04T08:55:15.794Z,1013.4
2023-03-04T08:58:15.785Z,1013.43
2023-03-04T09:01:15.789Z,1013.41
2023-03-04T09:04:15.785Z,1013.39
2023-03-04T09:07:15.785Z,1013.39
2023-03-04T09:10:15.796Z,1013.36
2023-03-04T09:13:15.779Z,1013.39
2023-03-04T09:16:15.805Z,1013.39
2023-03-04T09:19:15.776Z,1013.39
2023-03-04T09:22:15.778Z,1013.38
2023-03-04T09:25:15.773Z,1013.33
2023-03-04T09:28:15.776Z,1013.33
2023-03-04T09:31:15.809Z,1013.35
2023-03-04T09:34:15.775Z,1013.36
2023-03-04T09:37:15.768Z,1013.36
2023-03-04T09:40:15.768Z,1013.34
2023-03-04T09:43:15.784Z,1013.39
2023-03-04T09:46:15.799Z,1013.35
2023-03-04T09:49:15.766Z,1013.34
2023-03-04T09:52:15.778Z,1013.34
2023-03-04T09:55:15.767Z,1013.35
2023-03-04T09:58:15.761Z,1013.34
2023-03-04T10:01:15.759Z,1013.31
2023-03-04T10:04:15.779Z,1013.31
2023-03-04T10:07:15.776Z,1013.3
2023-03-04T10:10:15.900Z,1013.29
2023-03-04T10:13:15.782Z,1013.28
2023-03-04T10:16:15.785Z,1013.24
2023-03-04T10:19:15.770Z,1013.24
2023-03-04T10:22:15.774Z,1013.18
2023-03-04T10:25:15.774Z,1013.16
2023-03-04T10:28:15.772Z,1013.17
2023-03-04T10:31:15.812Z,1013.15
2023-03-04T10:34:15.752Z,1013.09
2023-03-04T10:37:15.815Z,1013.09
2023-03-04T10:40:15.826Z,1013.04
2023-03-04T10:43:15.750Z,1013.03
2023-03-04T10:46:15.757Z,1013.05
2023-03-04T10:49:15.746Z,1012.99
2023-03-04T10:52:15.746Z,1012.96
2023-03-04T10:55:15.745Z,1012.95
2023-03-04T10:58:15.739Z,1012.92
2023-03-04T11:01:15.799Z,1012.87
2023-03-04T11:04:15.789Z,1012.81
2023-03-04T11:07:15.735Z,1012.76
2023-03-04T11:10:15.738Z,1012.77
2023-03-04T11:13:15.731Z,1012.75
2023-03-04T11:16:15.738Z,1012.76
2023-03-04T11:19:15.732Z,1012.74
2023-03-04T11:22:15.733Z,1012.7
2023-03-04T11:25:15.721Z,1012.71
2023-03-04T11:28:15.716Z,1012.68
2023-03-04T11:31:15.722Z,1012.65
2023-03-04T11:34:15.714Z,1012.65
2023-03-04T11:37:15.742Z,1012.69
2023-03-04T11:40:15.733Z,1012.65
2023-03-04T11:43:15.738Z,1012.65
2023-03-04T11:46:15.828Z,1012.64
2023-03-04T11:49:15.742Z,1012.63
2023-03-04T11:52:15.740Z,1012.55
2023-03-04T11:55:15.731Z,1012.55
2023-03-04T11:58:15.739Z,1012.54
2023-03-04T12:01:15.727Z,1012.48
2023-03-04T12:04:16.374Z,1012.49
2023-03-04T12:07:16.351Z,1012.45
2023-03-04T12:10:16.152Z,1012.38
2023-03-04T12:13:16.314Z,1012.35
2023-03-04T12:16:16.193Z,1012.31
2023-03-04T12:19:16.213Z,1012.29
2023-03-04T12:22:15.723Z,1012.26
2023-03-04T12:25:18.085Z,1012.21
2023-03-04T12:28:16.179Z,1012.16
2023-03-04T12:31:18.701Z,1012.16
2023-03-04T12:34:16.105Z,1012.09
2023-03-04T12:37:15.835Z,1012.09
2023-03-04T12:40:16.068Z,1012.04
2023-03-04T12:43:16.069Z,1012
2023-03-04T12:46:15.780Z,1011.94
2023-03-04T12:49:15.725Z,1011.88
2023-03-04T12:52:15.714Z,1011.84
2023-03-04T12:55:15.711Z,1011.79
2023-03-04T12:58:15.720Z,1011.7
2023-03-04T13:01:15.724Z,1011.65
2023-03-04T13:04:15.706Z,1011.62
2023-03-04T13:07:15.711Z,1011.63
2023-03-04T13:10:15.800Z,1011.59
2023-03-04T13:13:15.708Z,1011.53
2023-03-04T13:16:15.740Z,1011.48
2023-03-04T13:19:15.704Z,1011.44
2023-03-04T13:22:15.701Z,1011.39
2023-03-04T13:25:15.753Z,1011.39
2023-03-04T13:28:15.701Z,1011.4
2023-03-04T13:31:15.810Z,1011.37
2023-03-04T13:34:15.703Z,1011.32
2023-03-04T13:37:15.699Z,1011.28
2023-03-04T13:40:15.916Z,1011.23
2023-03-04T13:43:15.700Z,1011.19
2023-03-04T13:46:15.798Z,1011.21
2023-03-04T13:49:15.696Z,1011.18
2023-03-04T13:52:15.704Z,1011.18
2023-03-04T13:55:15.685Z,1011.13
2023-03-04T13:58:15.689Z,1011.13
2023-03-04T14:01:15.793Z,1011.11
2023-03-04T14:04:15.729Z,1011.08
2023-03-04T14:07:15.684Z,1011.03
2023-03-04T14:10:15.720Z,1011.01
2023-03-04T14:13:15.681Z,1011
2023-03-04T14:16:15.701Z,1010.94
2023-03-04T14:19:15.677Z,1010.92
2023-03-04T14:22:15.703Z,1010.9
2023-03-04T14:25:15.690Z,1010.87
2023-03-04T14:28:15.687Z,1010.86
2023-03-04T14:31:15.705Z,1010.87
2023-03-04T14:34:15.672Z,1010.85
2023-03-04T14:37:15.680Z,1010.77
2023-03-04T14:40:15.680Z,1010.72
2023-03-04T14:43:15.684Z,1010.7
2023-03-04T14:46:15.699Z,1010.72
2023-03-04T14:49:15.673Z,1010.65
2023-03-04T14:52:15.674Z,1010.65
2023-03-04T14:55:15.678Z,1010.61
2023-03-04T14:58:15.667Z,1010.56
2023-03-04T15:01:15.707Z,1010.54
2023-03-04T15:04:15.688Z,1010.52
2023-03-04T15:07:15.681Z,1010.52
2023-03-04T15:10:15.668Z,1010.51
2023-03-04T15:13:15.680Z,1010.52
2023-03-04T15:16:15.775Z,1010.54
2023-03-04T15:19:15.654Z,1010.47
2023-03-04T15:22:15.664Z,1010.44
2023-03-04T15:25:15.698Z,1010.45
2023-03-04T15:28:15.656Z,1010.4
2023-03-04T15:31:15.780Z,1010.42
2023-03-04T15:34:15.650Z,1010.38
2023-03-04T15:37:15.645Z,1010.33
2023-03-04T15:40:15.656Z,1010.35
2023-03-04T15:43:15.655Z,1010.35
2023-03-04T15:46:17.011Z,1010.35
2023-03-04T15:49:15.644Z,1010.34
2023-03-04T15:52:15.636Z,1010.35
2023-03-04T15:55:15.645Z,1010.32
2023-03-04T15:58:15.643Z,1010.33
2023-03-04T16:01:15.650Z,1010.35
2023-03-04T16:04:15.695Z,1010.35
2023-03-04T16:07:15.638Z,1010.32
2023-03-04T16:10:15.632Z,1010.33
2023-03-04T16:13:15.643Z,1010.35
2023-03-04T16:16:15.675Z,1010.33
2023-03-04T16:19:15.635Z,1010.3
2023-03-04T16:22:15.636Z,1010.32
2023-03-04T16:25:15.633Z,1010.3
2023-03-04T16:28:15.636Z,1010.26
2023-03-04T16:31:15.755Z,1010.24
2023-03-04T16:34:15.631Z,1010.26
2023-03-04T16:37:15.630Z,1010.21
2023-03-04T16:40:15.642Z,1010.2
2023-03-04T16:43:15.624Z,1010.17
2023-03-04T16:46:15.640Z,1010.21
2023-03-04T16:49:15.624Z,1010.2
2023-03-04T16:52:15.621Z,1010.21
2023-03-04T16:55:15.621Z,1010.23
2023-03-04T16:58:15.634Z,1010.2
2023-03-04T17:01:15.723Z,1010.23
2023-03-04T17:04:15.610Z,1010.2
2023-03-04T17:07:15.613Z,1010.2
2023-03-04T17:10:15.614Z,1010.21
2023-03-04T17:13:15.612Z,1010.26
2023-03-04T17:16:15.685Z,1010.28
2023-03-04T17:19:15.610Z,1010.23
2023-03-04T17:22:15.614Z,1010.24
2023-03-04T17:25:15.604Z,1010.31
2023-03-04T17:28:15.611Z,1010.34
2023-03-04T17:31:15.646Z,1010.39
2023-03-04T17:34:15.612Z,1010.33
2023-03-04T17:37:15.607Z,1010.36
2023-03-04T17:40:15.611Z,1010.4
2023-03-04T17:43:15.602Z,1010.4
2023-03-04T17:46:15.620Z,1010.41
2023-03-04T17:49:15.611Z,1010.43
2023-03-04T17:52:15.605Z,1010.42
2023-03-04T17:55:15.606Z,1010.45
2023-03-04T17:58:15.594Z,1010.43
2023-03-04T18:01:15.643Z,1010.43
2023-03-04T18:04:15.595Z,1010.41
2023-03-04T18:07:15.646Z,1010.38
2023-03-04T18:10:15.593Z,1010.32
2023-03-04T18:13:15.593Z,1010.27
2023-03-04T18:16:15.603Z,1010.28
2023-03-04T18:19:18.293Z,1010.26
2023-03-04T18:22:15.594Z,1010.21
2023-03-04T18:25:15.603Z,1010.2
2023-03-04T18:28:15.589Z,1010.23
2023-03-04T18:31:15.605Z,1010.17
2023-03-04T18:34:15.606Z,1010.17
2023-03-04T18:37:15.583Z,1010.26
2023-03-04T18:40:15.586Z,1010.22
2023-03-04T18:43:15.624Z,1010.25
2023-03-04T18:46:15.631Z,1010.23
2023-03-04T18:49:15.591Z,1010.24
2023-03-04T18:52:15.583Z,1010.22
2023-03-04T18:55:15.589Z,1010.19
2023-03-04T18:58:15.864Z,1010.19
2023-03-04T19:01:15.605Z,1010.21
2023-03-04T19:04:15.666Z,1010.19
2023-03-04T19:07:15.581Z,1010.15
2023-03-04T19:10:15.626Z,1010.14
2023-03-04T19:13:15.587Z,1010.18
2023-03-04T19:16:15.687Z,1010.2
2023-03-04T19:19:16.703Z,1010.17
2023-03-04T19:22:16.496Z,1010.2
2023-03-04T19:25:16.483Z,1010.17
2023-03-04T19:28:16.487Z,1010.2
2023-03-04T19:31:16.486Z,1010.22
2023-03-04T19:34:16.544Z,1010.25
2023-03-04T19:37:16.509Z,1010.23
2023-03-04T19:40:16.481Z,1010.23
2023-03-04T19:43:16.485Z,1010.25
2023-03-04T19:46:16.513Z,1010.24
2023-03-04T19:49:16.675Z,1010.23
2023-03-04T19:52:16.474Z,1010.25
2023-03-04T19:55:16.472Z,1010.24
2023-03-04T19:58:16.484Z,1010.24
2023-03-04T20:01:16.504Z,1010.25
2023-03-04T20:04:16.526Z,1010.23
2023-03-04T20:07:16.475Z,1010.16
2023-03-04T20:10:16.466Z,1010.16
2023-03-04T20:13:16.465Z,1010.14
2023-03-04T20:16:16.505Z,1010.14
2023-03-04T20:19:16.714Z,1010.14
2023-03-04T20:22:16.509Z,1010.12
2023-03-04T20:25:16.478Z,1010.09
2023-03-04T20:28:16.463Z,1010.14
2023-03-04T20:31:16.561Z,1010.14
2023-03-04T20:34:16.498Z,1010.14
2023-03-04T20:37:16.471Z,1010.14
2023-03-04T20:40:16.438Z,1010.14
2023-03-04T20:43:16.449Z,1010.12
2023-03-04T20:46:16.521Z,1010.18
2023-03-04T20:49:16.592Z,1010.15
2023-03-04T20:52:16.453Z,1010.15
2023-03-04T20:55:16.465Z,1010.18
2023-03-04T20:58:16.715Z,1010.18
2023-03-04T21:01:16.524Z,1010.21
2023-03-04T21:04:16.681Z,1010.21
2023-03-04T21:07:16.479Z,1010.22
2023-03-04T21:10:16.470Z,1010.21
2023-03-04T21:13:16.463Z,1010.2
2023-03-04T21:16:16.560Z,1010.15
2023-03-04T21:19:16.932Z,1010.12
2023-03-04T21:22:16.451Z,1010.08
2023-03-04T21:25:16.462Z,1010
2023-03-04T21:28:16.450Z,1010.05
2023-03-04T21:31:16.567Z,1010.04
2023-03-04T21:34:16.488Z,1010.06
2023-03-04T21:37:16.453Z,1010.09
2023-03-04T21:40:16.454Z,1010.04
2023-03-04T21:43:16.464Z,1009.97
2023-03-04T21:46:16.504Z,1009.97
2023-03-04T21:49:16.494Z,1009.96
2023-03-04T21:52:16.486Z,1009.96
2023-03-04T21:55:16.465Z,1009.94
2023-03-04T21:58:16.484Z,1009.91
2023-03-04T22:01:16.546Z,1009.88
2023-03-04T22:04:16.497Z,1009.91
2023-03-04T22:07:16.517Z,1009.86
2023-03-04T22:10:16.476Z,1009.84
2023-03-04T22:13:16.482Z,1009.85
2023-03-04T22:16:16.554Z,1009.78
2023-03-04T22:19:16.590Z,1009.71
2023-03-04T22:22:16.491Z,1009.68
2023-03-04T22:25:16.488Z,1009.71
2023-03-04T22:28:16.499Z,1009.71
2023-03-04T22:31:16.648Z,1009.71
2023-03-04T22:34:16.561Z,1009.72
2023-03-04T22:37:16.498Z,1009.71
2023-03-04T22:40:16.479Z,1009.73
2023-03-04T22:43:16.489Z,1009.77
2023-03-04T22:46:16.509Z,1009.76
2023-03-04T22:49:16.532Z,1009.75
2023-03-04T22:52:16.526Z,1009.71
2023-03-04T22:55:16.485Z,1009.73
2023-03-04T22:58:16.495Z,1009.68
2023-03-04T23:01:16.607Z,1009.64
2023-03-04T23:04:16.508Z,1009.64
2023-03-04T23:07:16.479Z,1009.66
2023-03-04T23:10:16.475Z,1009.62
2023-03-04T23:13:16.487Z,1009.6
2023-03-04T23:16:16.585Z,1009.62
2023-03-04T23:19:16.658Z,1009.66
2023-03-04T23:22:16.470Z,1009.63
2023-03-04T23:25:16.505Z,1009.68
2023-03-04T23:28:16.467Z,1009.66
2023-03-04T23:31:16.595Z,1009.68
2023-03-04T23:34:16.519Z,1009.64
2023-03-04T23:37:16.489Z,1009.63
2023-03-04T23:40:16.479Z,1009.62
2023-03-04T23:43:16.466Z,1009.58
2023-03-04T23:46:16.539Z,1009.6
2023-03-04T23:49:16.524Z,1009.57
2023-03-04T23:52:16.722Z,1009.6
2023-03-04T23:55:16.512Z,1009.61
2023-03-04T23:58:16.484Z,1009.57
